Time;durP1;ratioP1;P1;durP2;ratioP2;P2;SDS_P1;SDS_P2;PMS_P1;PMS_P2;Temp;Humidity;BMP_temperature;BMP_pressure;BME280_temperature;BME280_humidity;BME280_pressure;Samples;Min_cycle;Max_cycle;Signal;HPM_P1;HPM_P2
2023/05/24 00:01:07;;;;;;;47.70;22.27;;;10.00;81.70;;;;;;5114031;28;20190;-88
2023/05/24 00:03:33;;;;;;;46.93;21.83;;;10.00;81.90;;;;;;5113981;28;20198;-88
2023/05/24 00:06:05;;;;;;;46.20;21.90;;;10.00;81.80;;;;;;5114060;28;20178;-87
2023/05/24 00:08:34;;;;;;;50.40;22.47;;;10.00;81.90;;;;;;5114194;28;20619;-87
2023/05/24 00:10:59;;;;;;;42.10;12.40;;;10.00;82.00;;;;;;5113831;28;20190;-87
2023/05/24 00:13:25;;;;;;;51.23;11.60;;;10.10;82.00;;;;;;5113826;28;20671;-87
2023/05/24 00:15:51;;;;;;;40.67;11.40;;;10.10;82.00;;;;;;5113818;28;20677;-87
2023/05/24 00:18:17;;;;;;;49.30;11.57;;;10.10;82.00;;;;;;5113674;28;20257;-88
2023/05/24 00:20:43;;;;;;;40.27;11.57;;;10.10;82.10;;;;;;5113949;28;20261;-87
2023/05/24 00:23:09;;;;;;;35.20;11.07;;;10.10;82.30;;;;;;5115098;27;20194;-87
2023/05/24 00:25:34;;;;;;;34.97;11.60;;;10.00;82.30;;;;;;5113408;28;20215;-87
2023/05/24 00:28:00;;;;;;;40.10;11.97;;;10.10;82.20;;;;;;5113610;28;20201;-87
2023/05/24 00:30:26;;;;;;;42.83;13.30;;;10.10;81.90;;;;;;5114730;28;20170;-88
2023/05/24 00:32:52;;;;;;;49.07;12.33;;;10.10;81.80;;;;;;5113459;28;20232;-88
2023/05/24 00:35:24;;;;;;;39.27;12.17;;;10.10;81.90;;;;;;5113488;28;20264;-88
2023/05/24 00:37:50;;;;;;;38.63;11.40;;;10.10;81.90;;;;;;5113328;28;20177;-88
2023/05/24 00:40:15;;;;;;;50.47;13.47;;;10.00;81.70;;;;;;5112528;28;20174;-88
2023/05/24 00:42:41;;;;;;;35.27;11.17;;;10.00;81.40;;;;;;5113429;28;20292;-88
2023/05/24 00:45:07;;;;;;;30.97;10.50;;;10.10;81.50;;;;;;5113235;28;20581;-88
2023/05/24 00:47:33;;;;;;;37.23;12.00;;;10.00;81.60;;;;;;5113242;28;20170;-88
2023/05/24 00:49:58;;;;;;;42.07;11.00;;;10.10;81.70;;;;;;5113167;28;20739;-88
2023/05/24 00:52:24;;;;;;;37.37;11.03;;;10.10;82.00;;;;;;5114323;28;20219;-87
2023/05/24 00:54:50;;;;;;;44.70;11.23;;;10.00;82.40;;;;;;5113005;28;20211;-87
2023/05/24 00:57:17;;;;;;;41.93;12.03;;;10.10;82.00;;;;;;5114287;28;20701;-87
2023/05/24 00:59:44;;;;;;;49.60;12.40;;;10.10;81.90;;;;;;5114238;28;20170;-87
2023/05/24 01:02:10;;;;;;;42.47;11.77;;;10.20;82.10;;;;;;5112896;28;20205;-87
2023/05/24 01:04:36;;;;;;;52.53;12.33;;;10.20;82.10;;;;;;5112847;28;20166;-87
2023/05/24 01:07:08;;;;;;;40.70;11.57;;;10.20;82.00;;;;;;5114137;28;20223;-88
2023/05/24 01:09:58;;;;;;;33.90;10.90;;;10.20;82.10;;;;;;5112895;28;20168;-87
2023/05/24 01:13:07;;;;;;;32.80;10.83;;;10.30;82.20;;;;;;5112742;28;20311;-87
2023/05/24 01:15:58;;;;;;;39.93;10.53;;;10.20;82.40;;;;;;5092008;28;20177;-87
2023/05/24 01:18:29;;;;;;;37.67;10.80;;;10.20;82.50;;;;;;5114044;28;20191;-87
2023/05/24 01:21:11;;;;;;;37.37;10.87;;;10.10;82.60;;;;;;5112747;28;20546;-87
2023/05/24 01:23:45;;;;;;;39.23;11.43;;;10.10;82.80;;;;;;5112680;28;20197;-87
2023/05/24 01:26:26;;;;;;;44.10;12.23;;;10.10;82.90;;;;;;5112707;28;20326;-87
2023/05/24 01:28:52;;;;;;;41.53;11.60;;;10.10;82.80;;;;;;5112731;28;20169;-88
2023/05/24 01:31:20;;;;;;;40.03;11.53;;;10.10;82.80;;;;;;5113768;28;20190;-87
2023/05/24 01:33:45;;;;;;;49.57;12.10;;;10.10;82.80;;;;;;5112542;28;20177;-87
2023/05/24 01:36:11;;;;;;;39.10;11.93;;;10.10;82.90;;;;;;5112543;28;20174;-88
2023/05/24 01:38:37;;;;;;;34.63;10.20;;;10.20;82.80;;;;;;5112399;28;20639;-87
2023/05/24 01:41:26;;;;;;;38.77;10.73;;;10.20;82.90;;;;;;5112286;28;20194;-87
2023/05/24 01:43:59;;;;;;;42.53;11.47;;;10.20;82.60;;;;;;5112359;28;20205;-88
2023/05/24 01:46:35;;;;;;;33.77;9.83;;;10.20;82.70;;;;;;5114042;28;20157;-87
2023/05/24 01:49:35;;;;;;;46.00;20.70;;;10.20;82.60;;;;;;5113723;28;20623;-87
2023/05/24 01:52:10;;;;;;;57.13;22.03;;;10.20;82.70;;;;;;5108062;28;20206;-87
2023/05/24 01:54:38;;;;;;;50.17;22.13;;;10.20;82.90;;;;;;5118022;27;20241;-88
2023/05/24 01:57:07;;;;;;;43.43;21.87;;;10.20;82.70;;;;;;5117935;28;20174;-88
2023/05/24 01:59:35;;;;;;;49.77;23.23;;;10.20;82.60;;;;;;5116517;28;20178;-88
2023/05/24 02:02:01;;;;;;;43.67;22.20;;;10.30;82.40;;;;;;5116341;28;20224;-87
2023/05/24 02:04:26;;;;;;;37.80;20.87;;;10.30;82.30;;;;;;5117515;28;20177;-88
2023/05/24 02:06:52;;;;;;;41.90;22.10;;;10.30;82.10;;;;;;5116281;28;20256;-87
2023/05/24 02:09:17;;;;;;;39.13;20.87;;;10.30;82.20;;;;;;5116271;28;20166;-87
2023/05/24 02:11:43;;;;;;;44.83;21.17;;;10.30;82.20;;;;;;5117401;28;20201;-87
2023/05/24 02:14:08;;;;;;;47.50;22.50;;;10.30;82.40;;;;;;5117666;28;20166;-88
2023/05/24 02:16:41;;;;;;;57.47;25.87;;;10.30;82.60;;;;;;5117419;28;20170;-87
2023/05/24 02:19:09;;;;;;;52.03;24.60;;;10.30;82.60;;;;;;5117437;28;20183;-88
2023/05/24 02:21:35;;;;;;;45.73;24.37;;;10.30;82.60;;;;;;5115922;28;20281;-88
2023/05/24 02:24:00;;;;;;;45.67;24.43;;;10.30;82.80;;;;;;5116654;28;20335;-88
2023/05/24 02:26:26;;;;;;;52.67;25.73;;;10.30;83.00;;;;;;5116235;28;20241;-88
2023/05/24 02:28:51;;;;;;;41.63;22.93;;;10.40;83.00;;;;;;5115994;28;20174;-88
2023/05/24 02:31:17;;;;;;;44.70;19.80;;;10.30;83.30;;;;;;5115874;28;20200;-87
2023/05/24 02:33:43;;;;;;;42.97;10.00;;;10.30;83.70;;;;;;5115920;28;20178;-88
2023/05/24 02:36:09;;;;;;;37.97;9.93;;;10.30;83.90;;;;;;5115921;28;20648;-88
2023/05/24 02:38:35;;;;;;;41.47;10.67;;;10.30;84.40;;;;;;5115781;28;20186;-88
2023/05/24 02:41:01;;;;;;;34.13;11.23;;;10.30;84.80;;;;;;5118789;28;20256;-87
2023/05/24 02:43:27;;;;;;;35.50;9.73;;;10.30;84.70;;;;;;5116738;28;20197;-87
2023/05/24 02:45:52;;;;;;;35.97;9.57;;;10.30;84.90;;;;;;5115622;28;20610;-87
2023/05/24 02:48:18;;;;;;;39.30;9.83;;;10.30;85.30;;;;;;5115589;28;20219;-88
2023/05/24 02:50:43;;;;;;;38.60;10.27;;;10.30;85.30;;;;;;5115497;28;20647;-87
2023/05/24 02:53:09;;;;;;;42.93;10.70;;;10.20;85.50;;;;;;5115430;28;20205;-87
2023/05/24 02:55:34;;;;;;;42.60;10.50;;;10.20;85.80;;;;;;5115385;28;20212;-88
2023/05/24 02:58:00;;;;;;;40.03;9.80;;;10.20;86.30;;;;;;5116707;28;20266;-88
2023/05/24 03:00:26;;;;;;;48.47;10.17;;;10.20;86.50;;;;;;5115338;28;20613;-88
2023/05/24 03:02:51;;;;;;;40.93;10.20;;;10.10;86.90;;;;;;5115479;28;20198;-88
2023/05/24 03:05:17;;;;;;;35.67;10.17;;;10.10;87.30;;;;;;5115195;28;20647;-87
2023/05/24 03:07:42;;;;;;;47.30;10.47;;;10.10;87.30;;;;;;5116608;28;20246;-87
2023/05/24 03:10:08;;;;;;;39.97;10.53;;;10.10;87.50;;;;;;5115125;28;20637;-87
2023/05/24 03:12:34;;;;;;;34.33;10.30;;;10.10;87.60;;;;;;5114998;28;20620;-87
2023/05/24 03:14:59;;;;;;;34.03;8.83;;;10.00;87.90;;;;;;5116292;28;20711;-88
2023/05/24 03:17:25;;;;;;;44.00;10.00;;;10.00;88.10;;;;;;5114928;28;20174;-87
2023/05/24 03:19:51;;;;;;;37.80;9.80;;;10.00;88.40;;;;;;5115065;28;20193;-87
2023/05/24 03:22:17;;;;;;;45.20;9.50;;;10.00;88.50;;;;;;5116061;28;20280;-88
2023/05/24 03:24:43;;;;;;;33.03;8.63;;;9.90;88.70;;;;;;5116169;28;20636;-87
2023/05/24 03:27:08;;;;;;;43.63;9.97;;;10.00;88.70;;;;;;5115937;28;20623;-88
2023/05/24 03:29:34;;;;;;;47.60;10.83;;;10.00;88.70;;;;;;5114839;28;20186;-88
2023/05/24 03:31:59;;;;;;;46.43;10.57;;;10.00;88.90;;;;;;5114552;28;20281;-87
2023/05/24 03:34:25;;;;;;;37.50;9.13;;;10.10;89.00;;;;;;5115838;28;20171;-87
2023/05/24 03:36:50;;;;;;;44.57;11.03;;;10.00;89.20;;;;;;5114797;28;20182;-88
2023/05/24 03:39:16;;;;;;;40.57;9.73;;;10.00;89.30;;;;;;5114560;28;20182;-88
2023/05/24 03:41:41;;;;;;;41.10;10.30;;;9.90;89.60;;;;;;5115794;28;20202;-88
2023/05/24 03:44:07;;;;;;;38.00;9.50;;;9.90;89.70;;;;;;5114595;28;20181;-87
2023/05/24 03:46:33;;;;;;;39.10;10.57;;;10.00;89.70;;;;;;5114369;28;20597;-88
2023/05/24 03:48:59;;;;;;;51.47;10.17;;;10.10;89.70;;;;;;5115610;28;20245;-88
2023/05/24 03:51:28;;;;;;;55.67;11.30;;;10.00;89.90;;;;;;5115534;28;20661;-88
2023/05/24 03:53:57;;;;;;;43.83;10.10;;;10.00;89.90;;;;;;5114214;28;20174;-88
2023/05/24 03:56:25;;;;;;;35.57;9.33;;;10.10;90.10;;;;;;5115474;28;20170;-88
2023/05/24 03:58:51;;;;;;;37.53;9.50;;;10.10;90.10;;;;;;5115363;28;20735;-88
2023/05/24 04:01:17;;;;;;;37.70;9.47;;;10.10;90.20;;;;;;5113961;28;20276;-88
2023/05/24 04:03:44;;;;;;;44.70;10.70;;;10.20;90.20;;;;;;5114012;28;20221;-88
2023/05/24 04:06:10;;;;;;;33.80;10.27;;;10.10;90.30;;;;;;5115563;28;20170;-86
2023/05/24 04:08:36;;;;;;;41.83;9.77;;;10.10;90.40;;;;;;5114005;28;20674;-88
2023/05/24 04:11:01;;;;;;;46.90;10.17;;;10.10;90.50;;;;;;5113993;28;20187;-87
2023/05/24 04:13:27;;;;;;;51.97;10.67;;;10.10;90.70;;;;;;5115071;28;20170;-89
2023/05/24 04:15:53;;;;;;;46.83;10.80;;;10.00;90.80;;;;;;5113800;28;20197;-89
2023/05/24 04:18:18;;;;;;;38.80;10.63;;;10.20;90.90;;;;;;5115044;28;20174;-89
2023/05/24 04:20:44;;;;;;;46.33;11.53;;;10.10;91.00;;;;;;5115152;28;20226;-89
2023/05/24 04:23:09;;;;;;;42.83;11.20;;;10.00;91.10;;;;;;5113833;28;20331;-88
2023/05/24 04:25:35;;;;;;;38.13;10.27;;;10.10;91.10;;;;;;5114784;28;20616;-89
2023/05/24 04:28:02;;;;;;;47.30;13.00;;;10.00;91.30;;;;;;5113661;28;20177;-89
2023/05/24 04:30:29;;;;;;;49.23;12.20;;;10.10;91.40;;;;;;5113544;28;20169;-89
2023/05/24 04:32:55;;;;;;;37.77;10.87;;;10.10;91.50;;;;;;5113432;28;20206;-89
2023/05/24 04:35:21;;;;;;;37.83;10.97;;;10.10;91.60;;;;;;5114692;28;20170;-89
2023/05/24 04:37:48;;;;;;;49.57;11.10;;;10.00;91.70;;;;;;5113486;28;20181;-89
2023/05/24 04:40:15;;;;;;;44.40;12.73;;;10.00;91.80;;;;;;5113371;28;20177;-88
2023/05/24 04:42:41;;;;;;;57.57;11.93;;;10.10;91.80;;;;;;5114522;28;20675;-89
2023/05/24 04:45:07;;;;;;;53.77;11.80;;;10.10;91.80;;;;;;5113473;28;20166;-89
2023/05/24 04:47:33;;;;;;;39.87;10.47;;;10.00;91.80;;;;;;5113263;28;20170;-89
2023/05/24 04:49:58;;;;;;;41.07;11.97;;;10.00;92.10;;;;;;5113170;28;20202;-89
2023/05/24 04:52:24;;;;;;;36.07;10.27;;;10.00;92.10;;;;;;5113189;28;20604;-89
2023/05/24 04:54:50;;;;;;;38.77;11.80;;;10.00;92.30;;;;;;5114366;28;20174;-89
2023/05/24 04:57:15;;;;;;;48.30;11.70;;;10.00;92.40;;;;;;5114875;28;20177;-89
2023/05/24 04:59:41;;;;;;;45.40;14.87;;;10.10;92.50;;;;;;5113144;28;20257;-89
2023/05/24 05:02:06;;;;;;;47.93;14.73;;;10.00;92.60;;;;;;5112845;28;20209;-89
2023/05/24 05:04:32;;;;;;;50.60;15.77;;;10.10;92.60;;;;;;5114504;28;20658;-89
2023/05/24 05:06:58;;;;;;;46.27;14.83;;;10.10;92.60;;;;;;5112897;28;20170;-89
2023/05/24 05:09:23;;;;;;;43.63;15.23;;;10.10;92.60;;;;;;5114383;28;20174;-89
2023/05/24 05:11:49;;;;;;;51.57;14.63;;;10.20;92.70;;;;;;5112865;28;20186;-87
2023/05/24 05:14:15;;;;;;;51.50;14.87;;;10.20;92.70;;;;;;5114419;28;20245;-87
2023/05/24 05:16:41;;;;;;;47.70;14.23;;;10.30;92.60;;;;;;5112780;28;20615;-89
2023/05/24 05:19:07;;;;;;;52.13;13.50;;;10.30;92.60;;;;;;5112899;28;20760;-89
2023/05/24 05:21:33;;;;;;;47.60;11.33;;;10.30;92.50;;;;;;5114191;28;20190;-89
2023/05/24 05:23:59;;;;;;;42.50;12.97;;;10.30;92.40;;;;;;5114033;28;20600;-87
2023/05/24 05:26:26;;;;;;;46.93;12.80;;;10.30;92.50;;;;;;5111937;28;20200;-89
2023/05/24 05:28:53;;;;;;;49.60;11.73;;;10.40;92.50;;;;;;5112659;28;20170;-89
2023/05/24 05:31:19;;;;;;;45.87;11.70;;;10.40;92.40;;;;;;5112538;28;20217;-89
2023/05/24 05:33:45;;;;;;;39.43;11.10;;;10.40;92.40;;;;;;5112566;28;20648;-89
2023/05/24 05:36:10;;;;;;;53.93;13.43;;;10.40;92.50;;;;;;5112931;28;20181;-89
2023/05/24 05:38:36;;;;;;;42.03;10.97;;;10.40;92.70;;;;;;5112490;28;20186;-89
2023/05/24 05:41:01;;;;;;;52.93;12.73;;;10.40;92.70;;;;;;5112493;28;20201;-89
2023/05/24 05:43:27;;;;;;;47.97;12.50;;;10.50;92.80;;;;;;5112462;28;20198;-89
2023/05/24 05:45:54;;;;;;;57.27;12.20;;;10.40;92.80;;;;;;5112315;28;20574;-89
2023/05/24 05:48:20;;;;;;;51.50;12.73;;;10.50;92.80;;;;;;5113636;28;20170;-89
2023/05/24 05:50:45;;;;;;;54.97;12.07;;;10.40;92.70;;;;;;5113567;28;20215;-88
2023/05/24 05:53:11;;;;;;;62.70;13.50;;;10.40;92.70;;;;;;5113579;28;20246;-89
2023/05/24 05:55:36;;;;;;;59.90;14.37;;;10.40;92.70;;;;;;5112458;28;20216;-89
2023/05/24 05:58:02;;;;;;;45.03;14.77;;;10.50;92.80;;;;;;5112382;28;20253;-87
2023/05/24 06:00:27;;;;;;;51.13;13.03;;;10.50;92.80;;;;;;5113431;28;20643;-87
2023/05/24 06:02:53;;;;;;;47.53;11.43;;;10.60;92.80;;;;;;5112370;28;20205;-87
2023/05/24 06:05:19;;;;;;;46.13;12.63;;;10.60;92.80;;;;;;5112354;28;20521;-87
2023/05/24 06:07:44;;;;;;;62.67;12.70;;;10.60;92.70;;;;;;5113695;28;20174;-87
2023/05/24 06:10:10;;;;;;;49.10;12.93;;;10.70;92.80;;;;;;5113748;28;20530;-87
2023/05/24 06:12:37;;;;;;;65.10;14.73;;;10.70;92.70;;;;;;5112240;28;20579;-87
2023/05/24 06:15:05;;;;;;;51.03;13.67;;;10.80;92.70;;;;;;5112436;28;20288;-87
2023/05/24 06:17:30;;;;;;;58.87;13.97;;;10.80;92.60;;;;;;5112137;28;20170;-87
2023/05/24 06:19:56;;;;;;;64.43;13.90;;;10.90;92.40;;;;;;5113277;28;20180;-87
2023/05/24 06:22:22;;;;;;;55.50;15.27;;;10.90;92.20;;;;;;5111933;28;20198;-87
2023/05/24 06:24:48;;;;;;;66.50;14.07;;;11.00;92.10;;;;;;5112041;28;20178;-87
2023/05/24 06:27:13;;;;;;;61.97;15.63;;;11.10;92.00;;;;;;5111895;28;20230;-87
2023/05/24 06:29:39;;;;;;;54.63;14.83;;;11.10;91.80;;;;;;5111967;28;20174;-87
2023/05/24 06:32:05;;;;;;;72.70;15.70;;;11.10;91.60;;;;;;5113176;28;20190;-85
2023/05/24 06:34:30;;;;;;;56.00;17.13;;;11.20;91.40;;;;;;5112011;28;20256;-87
2023/05/24 06:36:56;;;;;;;69.10;16.90;;;11.30;91.20;;;;;;5111892;28;20170;-87
2023/05/24 06:39:24;;;;;;;56.43;14.87;;;11.30;90.70;;;;;;5116922;28;20212;-87
2023/05/24 06:41:50;;;;;;;62.57;15.43;;;11.30;90.40;;;;;;5115591;28;20609;-87
2023/05/24 06:44:16;;;;;;;72.33;16.87;;;11.40;90.00;;;;;;5118048;28;20557;-91
2023/05/24 06:46:42;;;;;;;59.87;17.00;;;11.40;89.60;;;;;;5117290;28;20162;-90
2023/05/24 06:49:07;;;;;;;58.47;14.63;;;11.40;89.30;;;;;;5115665;28;20218;-89
2023/05/24 06:51:33;;;;;;;62.93;15.50;;;11.40;89.20;;;;;;5116801;28;20185;-88
2023/05/24 06:53:58;;;;;;;65.90;20.20;;;11.50;89.00;;;;;;5115534;28;20174;-88
2023/05/24 06:56:25;;;;;;;71.30;22.10;;;11.50;88.80;;;;;;5115460;28;20169;-90
2023/05/24 06:58:51;;;;;;;71.03;22.53;;;11.50;88.70;;;;;;5115397;28;20177;-88
2023/05/24 07:01:17;;;;;;;56.47;20.40;;;11.60;88.90;;;;;;5115984;28;20194;-87
2023/05/24 07:03:43;;;;;;;60.87;21.03;;;11.70;88.80;;;;;;5115395;28;20198;-87
2023/05/24 07:06:12;;;;;;;71.57;20.50;;;11.70;88.30;;;;;;5115272;28;20261;-89
2023/05/24 07:08:39;;;;;;;58.77;20.00;;;11.60;87.90;;;;;;5115308;28;20185;-89
2023/05/24 07:11:05;;;;;;;59.37;20.50;;;11.60;87.80;;;;;;5116342;28;20265;-89
2023/05/24 07:13:30;;;;;;;55.23;22.53;;;11.70;87.80;;;;;;5116575;28;20250;-89
2023/05/24 07:15:56;;;;;;;47.83;14.60;;;11.70;87.70;;;;;;5115553;28;20265;-87
2023/05/24 07:18:21;;;;;;;50.60;16.27;;;11.70;87.40;;;;;;5115432;28;20184;-87
2023/05/24 07:20:47;;;;;;;58.10;16.20;;;11.70;87.50;;;;;;5115318;28;20200;-87
2023/05/24 07:23:13;;;;;;;70.97;19.33;;;11.70;87.30;;;;;;5115039;28;20751;-88
2023/05/24 07:25:38;;;;;;;60.67;16.50;;;11.70;87.30;;;;;;5116169;28;20193;-87
2023/05/24 07:28:04;;;;;;;59.80;16.33;;;11.70;87.30;;;;;;5115018;28;20537;-88
2023/05/24 07:30:30;;;;;;;55.23;14.77;;;11.70;87.40;;;;;;5114974;28;20651;-88
2023/05/24 07:32:55;;;;;;;51.57;14.97;;;11.70;87.30;;;;;;5115139;28;20190;-88
2023/05/24 07:35:21;;;;;;;51.77;14.70;;;11.70;87.40;;;;;;5116141;28;20174;-88
2023/05/24 07:37:47;;;;;;;51.27;14.97;;;11.80;87.50;;;;;;5114858;28;20170;-88
2023/05/24 07:40:13;;;;;;;65.30;15.30;;;11.80;87.50;;;;;;5115922;28;20257;-88
2023/05/24 07:42:39;;;;;;;54.63;14.37;;;11.80;87.40;;;;;;5114692;28;20225;-88
2023/05/24 07:45:06;;;;;;;58.20;15.97;;;11.80;87.30;;;;;;5114736;28;20230;-88
2023/05/24 07:47:32;;;;;;;60.63;15.80;;;11.90;87.40;;;;;;5114527;28;20201;-87
2023/05/24 07:49:57;;;;;;;47.83;13.93;;;12.00;87.30;;;;;;5114152;28;20216;-87
2023/05/24 07:52:23;;;;;;;44.00;14.63;;;12.00;87.40;;;;;;5115765;27;20273;-88
2023/05/24 07:54:49;;;;;;;57.70;15.47;;;12.10;87.50;;;;;;5114499;28;20285;-88
2023/05/24 07:57:14;;;;;;;44.97;14.03;;;12.10;87.50;;;;;;5114504;28;20533;-87
2023/05/24 07:59:40;;;;;;;51.47;15.90;;;12.20;87.40;;;;;;5114331;28;20174;-87
2023/05/24 08:02:06;;;;;;;49.10;15.20;;;12.20;87.00;;;;;;5115345;28;20210;-88
2023/05/24 08:04:32;;;;;;;63.90;15.87;;;12.30;87.20;;;;;;5115266;28;20174;-87
2023/05/24 08:07:00;;;;;;;59.07;16.73;;;12.30;86.80;;;;;;5115627;28;20223;-88
2023/05/24 08:09:26;;;;;;;43.87;14.77;;;12.40;86.70;;;;;;5114293;28;20174;-89
2023/05/24 08:11:52;;;;;;;55.67;14.80;;;12.60;86.50;;;;;;5114331;28;20228;-88
2023/05/24 08:14:17;;;;;;;57.97;14.80;;;12.80;86.80;;;;;;5114092;28;20227;-88
2023/05/24 08:16:43;;;;;;;53.70;14.30;;;13.00;87.00;;;;;;5114139;28;20170;-86
2023/05/24 08:19:08;;;;;;;55.83;15.67;;;13.10;86.80;;;;;;5114217;28;20178;-88
2023/05/24 08:21:34;;;;;;;60.33;15.77;;;13.20;86.40;;;;;;5115057;28;20201;-88
2023/05/24 08:23:59;;;;;;;56.37;15.53;;;13.30;86.00;;;;;;5114027;28;20205;-87
2023/05/24 08:26:25;;;;;;;46.03;14.70;;;13.50;85.60;;;;;;5114410;28;20652;-87
2023/05/24 08:28:51;;;;;;;50.83;16.40;;;13.40;84.70;;;;;;5114623;28;20262;-87
2023/05/24 08:31:17;;;;;;;47.80;14.70;;;13.60;84.50;;;;;;5113589;28;20691;-87
2023/05/24 08:33:42;;;;;;;50.80;15.93;;;13.70;84.30;;;;;;5115248;28;20170;-86
2023/05/24 08:36:08;;;;;;;42.03;14.10;;;13.70;83.50;;;;;;5114895;28;20535;-87
2023/05/24 08:38:34;;;;;;;45.20;14.43;;;13.80;83.40;;;;;;5113995;28;20182;-87
2023/05/24 08:41:01;;;;;;;43.50;14.77;;;13.80;83.30;;;;;;5113429;28;20190;-89
2023/05/24 08:43:28;;;;;;;46.43;15.40;;;13.70;83.10;;;;;;5113430;28;20202;-89
2023/05/24 08:45:56;;;;;;;53.83;16.03;;;13.90;83.70;;;;;;5114628;28;20162;-89
2023/05/24 08:48:24;;;;;;;39.57;14.30;;;14.10;83.70;;;;;;5114453;28;20307;-89
2023/05/24 08:50:49;;;;;;;42.47;12.80;;;14.20;83.30;;;;;;5113521;28;20177;-89
2023/05/24 08:53:17;;;;;;;45.73;13.97;;;14.20;83.10;;;;;;5114504;28;20170;-88
2023/05/24 08:55:43;;;;;;;42.70;12.25;;;14.30;82.40;;;;;;5114686;28;20181;-89
2023/05/24 08:58:10;;;;;;;37.20;14.82;;;14.20;82.10;;;;;;5114399;28;20203;-88
2023/05/24 09:00:35;;;;;;;43.23;14.47;;;14.20;81.10;;;;;;5113622;28;20239;-86
2023/05/24 09:03:03;;;;;;;40.20;13.17;;;14.20;81.80;;;;;;5114137;28;20237;-86
2023/05/24 09:05:29;;;;;;;38.50;14.93;;;13.90;82.00;;;;;;5114266;28;20185;-86
2023/05/24 09:07:58;;;;;;;46.37;14.47;;;14.00;81.70;;;;;;5113023;28;20194;-88
2023/05/24 09:10:25;;;;;;;30.90;12.40;;;13.80;82.20;;;;;;5114205;28;20166;-87
2023/05/24 09:12:56;;;;;;;34.00;13.57;;;14.00;82.30;;;;;;5113085;28;20197;-87
2023/05/24 09:15:22;;;;;;;43.30;14.37;;;14.10;81.10;;;;;;5114116;28;20241;-88
2023/05/24 09:17:47;;;;;;;46.88;17.35;;;14.20;81.90;;;;;;5114056;28;20594;-88
2023/05/24 09:20:13;;;;;;;41.30;15.67;;;14.40;82.70;;;;;;5113974;28;20174;-87
2023/05/24 09:22:41;;;;;;;45.63;22.75;;;14.40;82.40;;;;;;5112538;28;20729;-88
2023/05/24 09:25:08;;;;;;;40.63;20.65;;;14.30;82.60;;;;;;5112417;28;20170;-88
2023/05/24 09:27:35;;;;;;;37.28;20.88;;;14.40;82.10;;;;;;5112763;28;20185;-88
2023/05/24 09:30:03;;;;;;;35.65;20.58;;;14.30;81.40;;;;;;5112586;28;20715;-87
2023/05/24 09:32:30;;;;;;;47.15;21.52;;;14.30;81.30;;;;;;5112626;28;20202;-88
2023/05/24 09:34:57;;;;;;;36.75;18.73;;;14.30;81.30;;;;;;5113762;28;20295;-86
2023/05/24 09:37:28;;;;;;;35.95;14.43;;;14.20;82.10;;;;;;5112573;28;20177;-87
2023/05/24 09:39:54;;;;;;;39.05;16.02;;;14.20;81.70;;;;;;5112505;28;20640;-86
2023/05/24 09:42:23;;;;;;;34.83;15.60;;;14.10;81.20;;;;;;5113561;28;20204;-87
2023/05/24 09:45:09;;;;;;;55.33;20.63;;;14.20;82.20;;;;;;5113056;28;20253;-87
2023/05/24 09:47:36;;;;;;;46.57;17.37;;;14.30;82.00;;;;;;5112461;28;20635;-88
2023/05/24 09:50:03;;;;;;;50.47;17.20;;;14.00;83.20;;;;;;5113681;28;20170;-88
2023/05/24 09:52:29;;;;;;;31.77;15.13;;;14.00;83.20;;;;;;5112416;28;20193;-90
2023/05/24 09:54:54;;;;;;;39.72;14.75;;;14.30;83.80;;;;;;5113489;28;20181;-89
2023/05/24 09:57:24;;;;;;;40.35;14.05;;;14.30;82.50;;;;;;5112525;28;20180;-88
2023/05/24 09:59:51;;;;;;;34.83;13.88;;;14.40;81.60;;;;;;5112649;28;20679;-88
2023/05/24 10:02:20;;;;;;;35.80;14.35;;;14.50;81.10;;;;;;5112322;28;20286;-88
2023/05/24 10:04:46;;;;;;;34.80;13.45;;;14.50;80.40;;;;;;5113210;28;20178;-87
2023/05/24 10:07:12;;;;;;;35.70;13.48;;;14.60;80.20;;;;;;5112138;28;20177;-87
2023/05/24 10:09:39;;;;;;;45.33;13.30;;;14.40;80.00;;;;;;5113438;28;20162;-87
2023/05/24 10:12:06;;;;;;;42.78;14.77;;;14.50;80.20;;;;;;5115317;28;20221;-87
2023/05/24 10:14:35;;;;;;;42.92;15.43;;;14.50;80.40;;;;;;5116365;28;20166;-87
2023/05/24 10:17:04;;;;;;;42.20;14.02;;;14.30;80.70;;;;;;5117491;28;20190;-88
2023/05/24 10:19:31;;;;;;;40.67;13.68;;;14.30;81.30;;;;;;5117682;28;20170;-88
2023/05/24 10:21:58;;;;;;;45.38;15.48;;;14.30;81.00;;;;;;5117266;28;20190;-86
2023/05/24 10:24:31;;;;;;;45.90;15.95;;;14.20;81.30;;;;;;5116232;28;20589;-86
2023/05/24 10:26:59;;;;;;;37.28;14.35;;;14.10;81.30;;;;;;5117324;28;20206;-86
2023/05/24 10:29:35;;;;;;;37.17;14.43;;;14.10;81.80;;;;;;5116200;28;20181;-86
2023/05/24 10:32:03;;;;;;;39.47;15.10;;;14.10;81.80;;;;;;5115835;28;20185;-87
2023/05/24 10:34:29;;;;;;;41.30;13.52;;;14.20;81.50;;;;;;5117244;28;20233;-87
2023/05/24 10:36:56;;;;;;;38.05;13.20;;;14.00;81.30;;;;;;5115994;28;20178;-86
2023/05/24 10:39:24;;;;;;;40.17;14.48;;;14.10;82.80;;;;;;5115800;28;20662;-87
2023/05/24 10:41:50;;;;;;;35.45;12.82;;;14.00;82.20;;;;;;5115718;28;20186;-87
2023/05/24 10:44:19;;;;;;;36.47;13.87;;;14.20;82.80;;;;;;5117074;28;20177;-87
2023/05/24 10:47:10;;;;;;;41.53;15.40;;;14.30;82.20;;;;;;5116884;28;20651;-87
2023/05/24 10:49:38;;;;;;;40.00;13.97;;;14.30;81.60;;;;;;5116104;28;20170;-89
2023/05/24 10:52:08;;;;;;;38.77;14.50;;;14.50;81.80;;;;;;5116958;28;20667;-87
2023/05/24 10:54:37;;;;;;;31.90;13.60;;;14.50;81.30;;;;;;5116625;28;20234;-87
2023/05/24 10:57:04;;;;;;;33.83;13.63;;;14.50;80.90;;;;;;5117054;28;20166;-87
2023/05/24 10:59:33;;;;;;;30.88;12.63;;;14.90;80.80;;;;;;5115487;28;20177;-87
2023/05/24 11:02:00;;;;;;;30.73;13.48;;;15.00;79.30;;;;;;5116585;28;20247;-87
2023/05/24 11:04:29;;;;;;;28.25;12.88;;;15.00;78.60;;;;;;5115464;28;20265;-87
2023/05/24 11:07:04;;;;;;;31.67;13.60;;;14.80;80.20;;;;;;5116605;28;20200;-87
2023/05/24 11:09:31;;;;;;;33.67;13.63;;;14.70;80.00;;;;;;5115671;28;20176;-87
2023/05/24 11:12:03;;;;;;;28.05;14.60;;;14.90;80.60;;;;;;5116002;28;20194;-86
2023/05/24 11:14:30;;;;;;;32.58;13.93;;;14.50;80.30;;;;;;5115390;28;20215;-87
2023/05/24 11:16:57;;;;;;;38.70;13.77;;;14.40;80.60;;;;;;5115224;28;20184;-87
2023/05/24 11:19:27;;;;;;;30.23;13.45;;;14.40;81.30;;;;;;5115110;28;20170;-87
2023/05/24 11:21:57;;;;;;;28.42;13.13;;;14.60;80.70;;;;;;5114925;28;20194;-87
2023/05/24 11:24:24;;;;;;;25.67;13.88;;;14.80;80.40;;;;;;5115788;28;20222;-87
2023/05/24 11:26:50;;;;;;;38.67;14.93;;;14.90;78.90;;;;;;5116073;28;20182;-87
2023/05/24 11:29:17;;;;;;;32.28;14.13;;;15.00;79.50;;;;;;5114905;28;20662;-87
2023/05/24 11:32:03;;;;;;;26.00;14.20;;;15.30;79.10;;;;;;5114795;28;20197;-86
2023/05/24 11:34:29;;;;;;;32.40;14.98;;;15.20;78.30;;;;;;5116077;28;20150;-87
2023/05/24 11:36:55;;;;;;;28.77;15.55;;;15.30;77.50;;;;;;5114761;28;20175;-87
2023/05/24 11:39:22;;;;;;;31.80;15.73;;;15.20;76.70;;;;;;5114663;28;20177;-87
2023/05/24 11:41:48;;;;;;;26.92;15.23;;;15.30;77.10;;;;;;5115897;28;20612;-87
2023/05/24 11:44:18;;;;;;;29.30;13.55;;;15.30;77.50;;;;;;5115905;28;20236;-87
2023/05/24 11:46:44;;;;;;;24.52;15.27;;;15.60;77.40;;;;;;5116244;28;20154;-87
2023/05/24 11:49:14;;;;;;;30.35;17.60;;;16.00;76.10;;;;;;5114547;28;20260;-87
2023/05/24 11:51:40;;;;;;;29.40;16.08;;;15.90;76.00;;;;;;5114553;28;20217;-87
2023/05/24 11:54:05;;;;;;;28.52;15.60;;;16.10;75.80;;;;;;5114749;28;20676;-87
2023/05/24 11:56:31;;;;;;;27.40;18.70;;;16.20;75.60;;;;;;5115600;28;20174;-87
2023/05/24 11:59:15;;;;;;;32.78;21.95;;;16.20;75.20;;;;;;5114478;28;20265;-87
2023/05/24 12:01:41;;;;;;;26.85;22.08;;;16.00;74.90;;;;;;5216306;22;20223;-87
2023/05/24 12:04:10;;;;;;;29.13;20.92;;;16.00;74.60;;;;;;5055072;28;20246;-87
2023/05/24 12:06:38;;;;;;;25.15;20.27;;;15.60;75.50;;;;;;5054812;28;20164;-87
2023/05/24 12:09:07;;;;;;;26.50;19.30;;;15.90;75.50;;;;;;5037041;28;20179;-87
2023/05/24 12:11:33;;;;;;;29.83;19.88;;;16.30;76.00;;;;;;5054571;28;20184;-87
2023/05/24 12:13:59;;;;;;;35.33;20.65;;;16.60;75.30;;;;;;5036744;28;20176;-87
2023/05/24 12:16:28;;;;;;;29.80;25.48;;;16.90;74.00;;;;;;5036853;28;20187;-87
2023/05/24 12:18:54;;;;;;;33.13;25.08;;;16.60;73.60;;;;;;5036690;28;20205;-87
2023/05/24 12:21:20;;;;;;;35.40;21.48;;;16.60;73.60;;;;;;5036620;28;20222;-87
2023/05/24 12:23:46;;;;;;;38.72;21.10;;;16.70;75.20;;;;;;5054410;28;20198;-86
2023/05/24 12:26:13;;;;;;;31.27;20.40;;;16.90;77.20;;;;;;5036595;28;20195;-87
2023/05/24 12:28:38;;;;;;;29.05;19.45;;;16.90;73.60;;;;;;5036528;28;20179;-87